Wetterstation Vordersexau
Wetterdaten: Woche 01.07.13 - 07.07.13 (KW27)
Datum Zeit Temp. A. Feuchte A. Luftdruck Regen Wind Richtung Taupunkt Windchill Windben
01.07.2013 00:00 11,6 C 82 % 1019,9 hPa 0,0 l/m 0,0 km/h O-NO 8,6 C 11,6 C 0,0 km/h
01.07.2013 01:00 11,0 C 82 % 1019,6 hPa 0,0 l/m 0,0 km/h S-SO 8,0 C 11,0 C 0,0 km/h
01.07.2013 02:00 10,4 C 82 % 1019,4 hPa 0,0 l/m 1,3 km/h S 7,5 C 10,4 C 0,7 km/h
01.07.2013 03:00 10,8 C 80 % 1018,9 hPa 0,0 l/m 3,9 km/h S 7,5 C 10,8 C 2,2 km/h
01.07.2013 04:00 10,0 C 80 % 1018,2 hPa 0,0 l/m 0,0 km/h S 6,7 C 10,0 C 0,0 km/h
01.07.2013 05:00 9,4 C 80 % 1018,2 hPa 0,0 l/m 0,0 km/h SO 6,1 C 9,4 C 0,0 km/h
01.07.2013 06:00 9,3 C 78 % 1018,4 hPa 0,0 l/m 0,0 km/h O-NO 5,7 C 9,3 C 0,0 km/h
01.07.2013 07:00 11,6 C 69 % 1018,5 hPa 0,0 l/m 0,0 km/h O-SO 6,1 C 11,6 C 0,0 km/h
01.07.2013 08:00 22,1 C 63 % 1018,2 hPa 0,0 l/m 29,2 km/h NW 14,7 C 17,8 C 16,2 km/h
01.07.2013 09:00 25,1 C 51 % 1018,0 hPa 0,0 l/m 0,0 km/h SW 14,2 C 25,1 C 0,0 km/h
01.07.2013 10:00 25,9 C 51 % 1017,8 hPa 0,0 l/m 0,0 km/h W 15,0 C 25,9 C 0,0 km/h
01.07.2013 11:00 27,3 C 47 % 1017,6 hPa 0,0 l/m 0,0 km/h NO 15,0 C 27,3 C 0,0 km/h
01.07.2013 12:00 25,9 C 49 % 1017,2 hPa 0,0 l/m 9,7 km/h N 14,4 C 25,2 C 5,4 km/h
01.07.2013 13:00 26,1 C 50 % 1016,6 hPa 0,0 l/m 0,0 km/h W-NW 14,8 C 26,1 C 0,0 km/h
01.07.2013 14:00 26,4 C 48 % 1016,1 hPa 0,0 l/m 8,4 km/h N 14,5 C 26,0 C 4,7 km/h
01.07.2013 15:00 29,6 C 43 % 1015,6 hPa 0,0 l/m 0,0 km/h NW 15,7 C 29,6 C 0,0 km/h
01.07.2013 16:00 30,6 C 43 % 1014,9 hPa 0,0 l/m 9,1 km/h N-NW 16,6 C 30,4 C 5,0 km/h
01.07.2013 17:00 33,5 C 34 % 1014,5 hPa 0,0 l/m 0,0 km/h W-NW 15,4 C 33,5 C 0,0 km/h
01.07.2013 18:00 31,1 C 35 % 1014,3 hPa 0,0 l/m 0,0 km/h NO 13,8 C 31,1 C 0,0 km/h
01.07.2013 19:00 29,6 C 34 % 1013,9 hPa 0,0 l/m 0,0 km/h O-NO 12,1 C 29,6 C 0,0 km/h
01.07.2013 20:00 22,8 C 51 % 1013,9 hPa 0,0 l/m 0,0 km/h O-SO 12,1 C 22,8 C 0,0 km/h
01.07.2013 21:00 17,9 C 68 % 1013,9 hPa 0,0 l/m 0,0 km/h S-SO 11,9 C 17,9 C 0,0 km/h
01.07.2013 22:00 16,0 C 75 % 1014,7 hPa 0,0 l/m 0,0 km/h S-SO 11,6 C 16,0 C 0,0 km/h
01.07.2013 23:00 14,9 C 78 % 1014,6 hPa 0,0 l/m 0,0 km/h NO 11,1 C 14,9 C 0,0 km/h
02.07.2013 00:00 14,9 C 80 % 1014,9 hPa 0,0 l/m 0,0 km/h NO 11,5 C 14,9 C 0,0 km/h
02.07.2013 01:00 15,0 C 80 % 1014,9 hPa 0,0 l/m 0,0 km/h S 11,6 C 15,0 C 0,0 km/h
02.07.2013 02:00 13,8 C 81 % 1014,8 hPa 0,0 l/m 0,0 km/h SO 10,6 C 13,8 C 0,0 km/h
02.07.2013 03:00 13,5 C 82 % 1014,7 hPa 0,0 l/m 0,0 km/h S-SO 10,5 C 13,5 C 0,0 km/h
02.07.2013 04:00 13,0 C 82 % 1014,8 hPa 0,0 l/m 0,0 km/h S-SO 10,0 C 13,0 C 0,0 km/h
02.07.2013 05:00 11,9 C 82 % 1015,2 hPa 0,0 l/m 0,0 km/h S-SO 8,9 C 11,9 C 0,0 km/h
02.07.2013 06:00 11,9 C 81 % 1015,2 hPa 0,0 l/m 0,0 km/h SO 8,7 C 11,9 C 0,0 km/h
02.07.2013 07:00 13,9 C 77 % 1015,5 hPa 0,0 l/m 0,0 km/h S 9,9 C 13,9 C 0,0 km/h
02.07.2013 08:00 21,8 C 67 % 1015,5 hPa 0,0 l/m 9,1 km/h W-SW 15,4 C 20,9 C 5,0 km/h
02.07.2013 09:00 27,5 C 51 % 1015,5 hPa 0,0 l/m 0,0 km/h S 16,4 C 27,5 C 0,0 km/h
02.07.2013 10:00 29,5 C 44 % 1014,8 hPa 0,0 l/m 0,0 km/h W 15,9 C 29,5 C 0,0 km/h
02.07.2013 11:00 29,9 C 44 % 1014,4 hPa 0,0 l/m 1,3 km/h W 16,3 C 29,9 C 0,7 km/h
02.07.2013 12:00 28,7 C 45 % 1014,2 hPa 0,0 l/m 1,3 km/h S-SW 15,6 C 28,7 C 0,7 km/h
02.07.2013 13:00 28,4 C 45 % 1013,8 hPa 0,0 l/m 6,5 km/h NW 15,3 C 28,4 C 3,6 km/h
02.07.2013 14:00 29,4 C 40 % 1013,1 hPa 0,0 l/m 5,2 km/h W 14,4 C 29,4 C 2,9 km/h
02.07.2013 15:00 30,7 C 38 % 1012,2 hPa 0,0 l/m 24,0 km/h NW 14,7 C 29,9 C 13,3 km/h
02.07.2013 16:00 34,0 C 33 % 1011,9 hPa 0,0 l/m 7,1 km/h N-NW 15,4 C 34,0 C 4,0 km/h
02.07.2013 17:00 31,1 C 37 % 1011,6 hPa 0,0 l/m 18,8 km/h W 14,7 C 30,6 C 10,4 km/h
02.07.2013 18:00 27,1 C 46 % 1010,9 hPa 0,0 l/m 0,0 km/h W 14,5 C 27,1 C 0,0 km/h
02.07.2013 19:00 24,4 C 46 % 1011,5 hPa 0,0 l/m 17,5 km/h N-NW 12,0 C 22,2 C 9,7 km/h
02.07.2013 20:00 21,6 C 54 % 1010,9 hPa 0,0 l/m 0,0 km/h NO 11,9 C 21,6 C 0,0 km/h
02.07.2013 21:00 19,6 C 63 % 1010,3 hPa 0,0 l/m 0,0 km/h NO 12,4 C 19,6 C 0,0 km/h
02.07.2013 22:00 18,2 C 70 % 1011,3 hPa 0,0 l/m 0,0 km/h O-NO 12,6 C 18,2 C 0,0 km/h
02.07.2013 23:00 17,5 C 72 % 1011,0 hPa 0,0 l/m 0,0 km/h NO 12,4 C 17,5 C 0,0 km/h
03.07.2013 00:00 16,6 C 75 % 1010,9 hPa 0,0 l/m 0,0 km/h NO 12,1 C 16,6 C 0,0 km/h
03.07.2013 01:00 16,3 C 79 % 1011,1 hPa 0,0 l/m 0,0 km/h S-SO 12,6 C 16,3 C 0,0 km/h
03.07.2013 02:00 16,7 C 77 % 1010,9 hPa 0,0 l/m 0,0 km/h W-SW 12,6 C 16,7 C 0,0 km/h
03.07.2013 03:00 19,4 C 70 % 1010,4 hPa 0,0 l/m 10,4 km/h W-NW 13,8 C 17,8 C 5,8 km/h
03.07.2013 04:00 18,5 C 71 % 1009,9 hPa 0,0 l/m 5,8 km/h NO 13,1 C 18,5 C 3,2 km/h
03.07.2013 05:00 17,6 C 75 % 1009,3 hPa 0,0 l/m 1,3 km/h S-SW 13,1 C 17,6 C 0,7 km/h
03.07.2013 06:00 16,8 C 79 % 1009,7 hPa 0,0 l/m 0,0 km/h W-SW 13,1 C 16,8 C 0,0 km/h
03.07.2013 07:00 15,9 C 81 % 1010,0 hPa 0,5 l/m 0,0 km/h S-SO 12,6 C 15,9 C 0,0 km/h
03.07.2013 08:00 16,1 C 81 % 1010,0 hPa 2,1 l/m 0,0 km/h S-SW 12,8 C 16,1 C 0,0 km/h
03.07.2013 09:00 16,1 C 79 % 1010,1 hPa 2,1 l/m 1,3 km/h W-SW 12,5 C 16,1 C 0,7 km/h
03.07.2013 10:00 16,2 C 77 % 1010,4 hPa 1,6 l/m 20,7 km/h W 12,2 C 11,1 C 11,5 km/h
03.07.2013 11:00 16,3 C 77 % 1010,8 hPa 1,6 l/m 14,9 km/h S-SW 12,3 C 12,8 C 8,3 km/h
03.07.2013 12:00 17,5 C 82 % 1010,9 hPa 0,0 l/m 14,9 km/h W-SW 14,4 C 14,2 C 8,3 km/h
03.07.2013 13:00 19,2 C 78 % 1011,1 hPa 0,0 l/m 20,1 km/h W-SW 15,3 C 15,2 C 11,2 km/h
03.07.2013 14:00 18,9 C 77 % 1011,1 hPa 0,0 l/m 9,1 km/h W-SW 14,8 C 17,8 C 5,0 km/h
03.07.2013 15:00 18,9 C 78 % 1011,4 hPa 0,0 l/m 7,1 km/h SW 15,0 C 18,6 C 4,0 km/h
03.07.2013 16:00 19,6 C 78 % 1011,4 hPa 0,0 l/m 16,8 km/h W 15,7 C 16,3 C 9,4 km/h
03.07.2013 17:00 19,1 C 78 % 1011,9 hPa 0,0 l/m 7,8 km/h W 15,2 C 18,5 C 4,3 km/h
03.07.2013 18:00 17,9 C 81 % 1012,0 hPa 0,5 l/m 5,8 km/h SW 14,6 C 17,9 C 3,2 km/h
03.07.2013 19:00 17,3 C 81 % 1012,5 hPa 0,5 l/m 1,9 km/h W 14,0 C 17,3 C 1,1 km/h
03.07.2013 20:00 18,3 C 81 % 1012,8 hPa 0,5 l/m 0,0 km/h S-SW 15,0 C 18,3 C 0,0 km/h
03.07.2013 21:00 17,7 C 81 % 1013,1 hPa 0,0 l/m 14,9 km/h W 14,4 C 14,5 C 8,3 km/h
03.07.2013 22:00 17,6 C 81 % 1014,3 hPa 0,0 l/m 0,0 km/h W 14,3 C 17,6 C 0,0 km/h
03.07.2013 23:00 17,1 C 78 % 1014,6 hPa 0,0 l/m 1,9 km/h W-SW 13,2 C 17,1 C 1,1 km/h
04.07.2013 00:00 16,8 C 74 % 1014,9 hPa 0,5 l/m 0,0 km/h W-SW 12,1 C 16,8 C 0,0 km/h
04.07.2013 01:00 16,5 C 74 % 1015,1 hPa 0,0 l/m 0,0 km/h NW 11,8 C 16,5 C 0,0 km/h
04.07.2013 02:00 16,4 C 72 % 1015,4 hPa 0,0 l/m 0,0 km/h N-NW 11,3 C 16,4 C 0,0 km/h
04.07.2013 03:00 16,4 C 71 % 1015,8 hPa 0,0 l/m 0,0 km/h W-SW 11,1 C 16,4 C 0,0 km/h
04.07.2013 04:00 16,3 C 67 % 1015,9 hPa 0,0 l/m 0,0 km/h W-NW 10,2 C 16,3 C 0,0 km/h
04.07.2013 05:00 15,9 C 67 % 1016,4 hPa 0,0 l/m 0,0 km/h W-NW 9,8 C 15,9 C 0,0 km/h
04.07.2013 06:00 16,1 C 67 % 1016,7 hPa 0,0 l/m 0,0 km/h W 10,0 C 16,1 C 0,0 km/h
04.07.2013 07:00 16,3 C 66 % 1017,4 hPa 0,0 l/m 0,0 km/h N-NO 9,9 C 16,3 C 0,0 km/h
04.07.2013 08:00 16,3 C 70 % 1017,9 hPa 0,0 l/m 0,0 km/h W 10,8 C 16,3 C 0,0 km/h
04.07.2013 09:00 16,5 C 69 % 1018,7 hPa 1,0 l/m 0,0 km/h W 10,8 C 16,5 C 0,0 km/h
04.07.2013 10:00 16,5 C 71 % 1019,1 hPa 1,0 l/m 7,8 km/h NO 11,2 C 15,8 C 4,3 km/h
04.07.2013 11:00 17,1 C 70 % 1019,9 hPa 4,7 l/m 0,0 km/h SO 11,6 C 17,1 C 0,0 km/h
04.07.2013 12:00 19,0 C 82 % 1020,3 hPa 0,0 l/m 0,0 km/h O 15,9 C 19,0 C 0,0 km/h
04.07.2013 13:00 23,6 C 68 % 1020,5 hPa 0,0 l/m 0,0 km/h N-NO 17,3 C 23,6 C 0,0 km/h
04.07.2013 14:00 22,4 C 68 % 1020,6 hPa 0,0 l/m 0,0 km/h O-NO 16,2 C 22,4 C 0,0 km/h
04.07.2013 15:00 24,9 C 64 % 1020,7 hPa 0,0 l/m 0,0 km/h N-NW 17,6 C 24,9 C 0,0 km/h
04.07.2013 16:00 23,0 C 62 % 1020,9 hPa 0,0 l/m 0,0 km/h NW 15,3 C 23,0 C 0,0 km/h
04.07.2013 17:00 27,6 C 51 % 1021,0 hPa 0,0 l/m 0,0 km/h NO 16,5 C 27,6 C 0,0 km/h
04.07.2013 18:00 23,4 C 57 % 1021,0 hPa 0,0 l/m 0,0 km/h NO 14,4 C 23,4 C 0,0 km/h
04.07.2013 19:00 21,6 C 64 % 1021,4 hPa 0,0 l/m 0,0 km/h NO 14,5 C 21,6 C 0,0 km/h
04.07.2013 20:00 19,3 C 72 % 1021,9 hPa 0,0 l/m 0,0 km/h O-NO 14,1 C 19,3 C 0,0 km/h
04.07.2013 21:00 17,9 C 78 % 1022,5 hPa 0,0 l/m 0,0 km/h O-NO 14,0 C 17,9 C 0,0 km/h
04.07.2013 22:00 16,9 C 81 % 1023,2 hPa 0,0 l/m 0,0 km/h SO 13,6 C 16,9 C 0,0 km/h
04.07.2013 23:00 15,4 C 82 % 1023,7 hPa 0,0 l/m 0,0 km/h O-SO 12,3 C 15,4 C 0,0 km/h
05.07.2013 00:00 15,4 C 80 % 1024,1 hPa 0,0 l/m 0,0 km/h O-SO 12,0 C 15,4 C 0,0 km/h
05.07.2013 01:00 15,3 C 80 % 1024,0 hPa 0,0 l/m 0,0 km/h S-SO 11,9 C 15,3 C 0,0 km/h
05.07.2013 02:00 14,9 C 80 % 1024,5 hPa 0,0 l/m 0,0 km/h S 11,5 C 14,9 C 0,0 km/h
05.07.2013 03:00 13,5 C 79 % 1024,2 hPa 0,0 l/m 0,0 km/h S-SW 9,9 C 13,5 C 0,0 km/h
05.07.2013 04:00 12,8 C 77 % 1024,4 hPa 0,0 l/m 0,0 km/h S 8,9 C 12,8 C 0,0 km/h
05.07.2013 05:00 12,1 C 75 % 1024,6 hPa 0,0 l/m 0,0 km/h S-SO 7,8 C 12,1 C 0,0 km/h
05.07.2013 06:00 12,0 C 72 % 1024,9 hPa 0,0 l/m 3,2 km/h S 7,1 C 12,0 C 1,8 km/h
05.07.2013 07:00 13,6 C 61 % 1025,3 hPa 0,0 l/m 1,3 km/h S-SO 6,2 C 13,6 C 0,7 km/h
05.07.2013 08:00 19,4 C 78 % 1025,5 hPa 0,0 l/m 0,0 km/h O-SO 15,5 C 19,4 C 0,0 km/h
05.07.2013 09:00 24,9 C 63 % 1025,6 hPa 0,0 l/m 0,0 km/h O-NO 17,4 C 24,9 C 0,0 km/h
05.07.2013 10:00 26,9 C 53 % 1025,3 hPa 0,0 l/m 0,0 km/h N 16,5 C 26,9 C 0,0 km/h
05.07.2013 11:00 27,9 C 49 % 1025,3 hPa 0,0 l/m 0,0 km/h N 16,2 C 27,9 C 0,0 km/h
05.07.2013 12:00 26,4 C 52 % 1025,3 hPa 0,0 l/m 2,6 km/h O-NO 15,7 C 26,4 C 1,4 km/h
05.07.2013 13:00 25,3 C 55 % 1025,3 hPa 0,0 l/m 7,1 km/h N-NW 15,6 C 25,1 C 4,0 km/h
05.07.2013 14:00 28,9 C 48 % 1024,8 hPa 0,0 l/m 10,4 km/h O-NO 16,8 C 28,4 C 5,8 km/h
05.07.2013 15:00 29,2 C 48 % 1024,8 hPa 0,0 l/m 0,0 km/h O-NO 17,0 C 29,2 C 0,0 km/h
05.07.2013 16:00 29,1 C 46 % 1024,5 hPa 0,0 l/m 0,6 km/h O-NO 16,3 C 29,1 C 0,4 km/h
05.07.2013 17:00 28,4 C 45 % 1024,4 hPa 0,0 l/m 24,6 km/h N-NO 15,3 C 26,8 C 13,7 km/h
05.07.2013 18:00 27,3 C 48 % 1024,2 hPa 0,0 l/m 35,6 km/h NO 15,3 C 24,7 C 19,8 km/h
05.07.2013 19:00 25,8 C 53 % 1024,4 hPa 0,0 l/m 0,0 km/h O 15,5 C 25,8 C 0,0 km/h
05.07.2013 20:00 22,9 C 59 % 1024,8 hPa 0,0 l/m 0,0 km/h NO 14,5 C 22,9 C 0,0 km/h
05.07.2013 21:00 20,2 C 65 % 1024,6 hPa 0,0 l/m 0,0 km/h SO 13,4 C 20,2 C 0,0 km/h
05.07.2013 22:00 16,9 C 77 % 1025,3 hPa 0,0 l/m 0,0 km/h SO 12,8 C 16,9 C 0,0 km/h
05.07.2013 23:00 15,4 C 81 % 1025,3 hPa 0,0 l/m 0,0 km/h O-NO 12,2 C 15,4 C 0,0 km/h
06.07.2013 00:00 14,8 C 81 % 1025,4 hPa 0,0 l/m 0,0 km/h O-NO 11,6 C 14,8 C 0,0 km/h
06.07.2013 01:00 14,4 C 80 % 1025,3 hPa 0,0 l/m 0,0 km/h NO 11,0 C 14,4 C 0,0 km/h
06.07.2013 02:00 14,1 C 78 % 1024,9 hPa 0,0 l/m 0,0 km/h O-NO 10,3 C 14,1 C 0,0 km/h
06.07.2013 03:00 13,2 C 78 % 1024,5 hPa 0,0 l/m 0,0 km/h SO 9,4 C 13,2 C 0,0 km/h
06.07.2013 04:00 12,1 C 78 % 1024,0 hPa 0,0 l/m 0,0 km/h O-SO 8,4 C 12,1 C 0,0 km/h
06.07.2013 05:00 11,8 C 76 % 1024,2 hPa 0,0 l/m 0,0 km/h S-SO 7,7 C 11,8 C 0,0 km/h
06.07.2013 06:00 12,0 C 74 % 1024,3 hPa 0,0 l/m 0,0 km/h SO 7,5 C 12,0 C 0,0 km/h
06.07.2013 07:00 14,4 C 64 % 1024,2 hPa 0,0 l/m 0,0 km/h W-NW 7,7 C 14,4 C 0,0 km/h
06.07.2013 08:00 22,9 C 72 % 1024,0 hPa 0,0 l/m 0,0 km/h W-NW 17,6 C 22,9 C 0,0 km/h
06.07.2013 09:00 26,0 C 61 % 1024,0 hPa 0,0 l/m 0,0 km/h N-NW 17,9 C 26,0 C 0,0 km/h
06.07.2013 10:00 27,6 C 56 % 1023,7 hPa 0,0 l/m 2,6 km/h N-NW 18,0 C 27,6 C 1,4 km/h
06.07.2013 11:00 30,3 C 50 % 1023,3 hPa 0,0 l/m 0,0 km/h O-NO 18,7 C 30,3 C 0,0 km/h
06.07.2013 12:00 30,3 C 45 % 1022,8 hPa 0,0 l/m 0,0 km/h NO 17,0 C 30,3 C 0,0 km/h
06.07.2013 13:00 31,1 C 42 % 1022,6 hPa 0,0 l/m 3,9 km/h NO 16,6 C 31,1 C 2,2 km/h
06.07.2013 14:00 31,3 C 40 % 1022,2 hPa 0,0 l/m 9,7 km/h SO 16,1 C 31,1 C 5,4 km/h
06.07.2013 15:00 33,6 C 35 % 1022,2 hPa 0,0 l/m 11,7 km/h SO 16,0 C 33,6 C 6,5 km/h
06.07.2013 16:00 36,1 C 33 % 1021,9 hPa 0,0 l/m 0,0 km/h S-SW 17,2 C 36,1 C 0,0 km/h
06.07.2013 17:00 37,5 C 30 % 1021,8 hPa 0,0 l/m 0,0 km/h O-SO 16,9 C 37,5 C 0,0 km/h
06.07.2013 18:00 36,5 C 30 % 1021,5 hPa 0,0 l/m 0,0 km/h O-NO 16,1 C 36,5 C 0,0 km/h
06.07.2013 19:00 32,9 C 35 % 1021,4 hPa 0,0 l/m 0,0 km/h S-SO 15,4 C 32,9 C 0,0 km/h
06.07.2013 20:00 25,9 C 49 % 1021,7 hPa 0,0 l/m 0,0 km/h O-NO 14,4 C 25,9 C 0,0 km/h
06.07.2013 21:00 22,8 C 55 % 1022,2 hPa 0,0 l/m 0,0 km/h S-SO 13,3 C 22,8 C 0,0 km/h
06.07.2013 22:00 18,4 C 71 % 1022,5 hPa 0,0 l/m 0,0 km/h S-SO 13,0 C 18,4 C 0,0 km/h
06.07.2013 23:00 16,5 C 77 % 1023,0 hPa 0,0 l/m 0,0 km/h SW 12,5 C 16,5 C 0,0 km/h
07.07.2013 00:00 16,3 C 79 % 1023,2 hPa 0,0 l/m 0,0 km/h O-NO 12,6 C 16,3 C 0,0 km/h
07.07.2013 01:00 14,8 C 81 % 1023,3 hPa 0,0 l/m 0,0 km/h S 11,6 C 14,8 C 0,0 km/h
07.07.2013 02:00 14,3 C 81 % 1023,2 hPa 0,0 l/m 0,0 km/h O-SO 11,1 C 14,3 C 0,0 km/h
07.07.2013 03:00 13,4 C 81 % 1023,2 hPa 0,0 l/m 0,0 km/h S-SO 10,2 C 13,4 C 0,0 km/h
07.07.2013 04:00 12,5 C 81 % 1023,1 hPa 0,0 l/m 0,0 km/h S-SO 9,3 C 12,5 C 0,0 km/h
07.07.2013 05:00 12,4 C 80 % 1023,2 hPa 0,0 l/m 0,0 km/h S-SO 9,0 C 12,4 C 0,0 km/h
07.07.2013 06:00 12,4 C 78 % 1023,1 hPa 0,0 l/m 0,0 km/h S-SO 8,7 C 12,4 C 0,0 km/h
07.07.2013 07:00 15,3 C 65 % 1023,2 hPa 0,0 l/m 0,0 km/h N-NW 8,8 C 15,3 C 0,0 km/h
07.07.2013 08:00 24,4 C 68 % 1023,4 hPa 0,0 l/m 0,0 km/h N-NW 18,1 C 24,4 C 0,0 km/h
07.07.2013 09:00 27,1 C 58 % 1023,6 hPa 0,0 l/m 1,3 km/h N-NW 18,1 C 27,1 C 0,7 km/h
07.07.2013 10:00 29,2 C 55 % 1023,2 hPa 0,0 l/m 0,0 km/h O-NO 19,2 C 29,2 C 0,0 km/h
07.07.2013 11:00 31,5 C 45 % 1023,0 hPa 0,0 l/m 0,0 km/h O-NO 18,1 C 31,5 C 0,0 km/h
07.07.2013 12:00 30,5 C 46 % 1023,0 hPa 0,0 l/m 3,9 km/h O-NO 17,5 C 30,5 C 2,2 km/h
07.07.2013 13:00 30,9 C 46 % 1023,0 hPa 0,0 l/m 0,0 km/h S-SO 17,9 C 30,9 C 0,0 km/h
07.07.2013 14:00 30,9 C 44 % 1022,6 hPa 0,0 l/m 8,4 km/h NO 17,2 C 30,8 C 4,7 km/h
07.07.2013 15:00 32,9 C 41 % 1022,4 hPa 0,0 l/m 1,3 km/h O-SO 17,9 C 32,9 C 0,7 km/h
07.07.2013 16:00 36,6 C 34 % 1022,2 hPa 0,0 l/m 0,0 km/h O-SO 18,1 C 36,6 C 0,0 km/h
07.07.2013 17:00 31,8 C 41 % 1021,8 hPa 0,0 l/m 4,5 km/h O-SO 16,9 C 31,8 C 2,5 km/h
07.07.2013 18:00 31,9 C 39 % 1021,6 hPa 0,0 l/m 0,0 km/h S 16,2 C 31,9 C 0,0 km/h
07.07.2013 19:00 28,9 C 45 % 1021,8 hPa 0,0 l/m 0,0 km/h NO 15,8 C 28,9 C 0,0 km/h
07.07.2013 20:00 25,8 C 53 % 1022,2 hPa 0,0 l/m 0,0 km/h O-NO 15,5 C 25,8 C 0,0 km/h
07.07.2013 21:00 23,9 C 59 % 1022,4 hPa 0,0 l/m 0,0 km/h NO 15,4 C 23,9 C 0,0 km/h
07.07.2013 22:00 21,2 C 67 % 1022,7 hPa 0,0 l/m 0,0 km/h NO 14,8 C 21,2 C 0,0 km/h
07.07.2013 23:00 20,6 C 70 % 1023,2 hPa 0,0 l/m 0,0 km/h NO 14,9 C 20,6 C 0,0 km/h
Min-Datum _ 01.07.13 06.07.13 03.07.13 - 01.07.13 - 01.07.13 01.07.13 01.07.13
_ Min-Zeit 06:19 17:19 05:19 - 00:19 - 06:19 06:19 00:19
Minimum _ 9,3 C 30 % 1009,3 hPa - 0,0 km/h - 5,7 C 9,3 C 0,0 km/h
Max-Datum _ 06.07.13 01.07.13 05.07.13 04.07.13 05.07.13 - 07.07.13 06.07.13 05.07.13
_ Max-Zeit 17:19 00:19 09:19 11:19 18:19 - 10:19 17:19 18:19
Maximum _ 37,5 C 82 % 1025,6 hPa 4,7 l/m 35,6 km/h
NO
- 19,2 C 37,5 C 19,8 km/h
NO
Durchschnitt _ 21,0 C 64 % 1018,8 hPa #16,6 l/m 2,7 km/h O-NO 13,3 C 20,8 C 1,5 km/h
www.sexauwetter.de